sensor_id;sensor_type;location;lat;lon;timestamp;temperature;humidity
14049;DHT22;7099;53.922;10.728;2023-12-28T00:02:55;6.50;99.90
14049;DHT22;7099;53.922;10.728;2023-12-28T00:07:03;6.60;99.90
14049;DHT22;7099;53.922;10.728;2023-12-28T00:11:09;6.60;99.90
14049;DHT22;7099;53.922;10.728;2023-12-28T00:15:14;6.60;99.90
14049;DHT22;7099;53.922;10.728;2023-12-28T00:19:20;6.60;99.90
14049;DHT22;7099;53.922;10.728;2023-12-28T00:23:27;6.70;99.90
14049;DHT22;7099;53.922;10.728;2023-12-28T00:27:32;6.70;99.90
14049;DHT22;7099;53.922;10.728;2023-12-28T00:31:43;6.70;99.90
14049;DHT22;7099;53.922;10.728;2023-12-28T00:35:48;6.80;99.90
14049;DHT22;7099;53.922;10.728;2023-12-28T00:39:55;6.80;99.90
14049;DHT22;7099;53.922;10.728;2023-12-28T00:44:00;6.80;99.90
14049;DHT22;7099;53.922;10.728;2023-12-28T00:48:07;6.80;99.90
14049;DHT22;7099;53.922;10.728;2023-12-28T00:52:13;6.80;99.90
14049;DHT22;7099;53.922;10.728;2023-12-28T00:56:19;6.90;99.90
14049;DHT22;7099;53.922;10.728;2023-12-28T01:00:26;6.90;99.90
14049;DHT22;7099;53.922;10.728;2023-12-28T01:04:32;6.90;99.90
14049;DHT22;7099;53.922;10.728;2023-12-28T01:08:37;6.90;99.90
14049;DHT22;7099;53.922;10.728;2023-12-28T01:12:43;6.90;99.90
14049;DHT22;7099;53.922;10.728;2023-12-28T01:16:49;7.00;99.90
14049;DHT22;7099;53.922;10.728;2023-12-28T01:20:54;7.00;99.90
14049;DHT22;7099;53.922;10.728;2023-12-28T01:25:00;7.00;99.90
14049;DHT22;7099;53.922;10.728;2023-12-28T01:29:06;7.00;99.90
14049;DHT22;7099;53.922;10.728;2023-12-28T01:33:11;7.10;99.90
14049;DHT22;7099;53.922;10.728;2023-12-28T01:37:17;7.10;99.90
14049;DHT22;7099;53.922;10.728;2023-12-28T01:41:23;7.10;99.90
14049;DHT22;7099;53.922;10.728;2023-12-28T01:45:29;7.20;99.90
14049;DHT22;7099;53.922;10.728;2023-12-28T01:49:35;7.20;99.90
14049;DHT22;7099;53.922;10.728;2023-12-28T01:53:43;7.20;99.90
14049;DHT22;7099;53.922;10.728;2023-12-28T01:57:50;7.30;99.90
14049;DHT22;7099;53.922;10.728;2023-12-28T02:01:56;7.30;99.90
14049;DHT22;7099;53.922;10.728;2023-12-28T02:06:02;7.40;99.90
14049;DHT22;7099;53.922;10.728;2023-12-28T02:10:09;7.40;99.90
14049;DHT22;7099;53.922;10.728;2023-12-28T02:14:15;7.40;99.90
14049;DHT22;7099;53.922;10.728;2023-12-28T02:18:23;7.50;99.90
14049;DHT22;7099;53.922;10.728;2023-12-28T02:22:33;7.50;99.90
14049;DHT22;7099;53.922;10.728;2023-12-28T02:26:39;7.60;99.90
14049;DHT22;7099;53.922;10.728;2023-12-28T02:30:45;7.60;99.90
14049;DHT22;7099;53.922;10.728;2023-12-28T02:34:53;7.70;99.90
14049;DHT22;7099;53.922;10.728;2023-12-28T02:39:03;7.70;99.90
14049;DHT22;7099;53.922;10.728;2023-12-28T02:43:10;7.70;99.90
14049;DHT22;7099;53.922;10.728;2023-12-28T02:47:17;7.80;99.90
14049;DHT22;7099;53.922;10.728;2023-12-28T02:51:22;7.80;99.90
14049;DHT22;7099;53.922;10.728;2023-12-28T02:55:28;7.80;99.90
14049;DHT22;7099;53.922;10.728;2023-12-28T02:59:33;7.80;99.90
14049;DHT22;7099;53.922;10.728;2023-12-28T03:03:39;7.90;99.90
14049;DHT22;7099;53.922;10.728;2023-12-28T03:07:45;7.90;99.90
14049;DHT22;7099;53.922;10.728;2023-12-28T03:11:51;8.00;99.90
14049;DHT22;7099;53.922;10.728;2023-12-28T03:15:56;8.00;99.90
14049;DHT22;7099;53.922;10.728;2023-12-28T03:20:03;8.00;99.90
14049;DHT22;7099;53.922;10.728;2023-12-28T03:24:09;8.00;99.90
14049;DHT22;7099;53.922;10.728;2023-12-28T03:28:14;8.00;99.90
14049;DHT22;7099;53.922;10.728;2023-12-28T03:32:20;8.10;99.90
14049;DHT22;7099;53.922;10.728;2023-12-28T03:36:26;8.10;99.90
14049;DHT22;7099;53.922;10.728;2023-12-28T03:40:31;8.10;99.90
14049;DHT22;7099;53.922;10.728;2023-12-28T03:44:37;8.20;99.90
14049;DHT22;7099;53.922;10.728;2023-12-28T03:48:43;8.20;99.90
14049;DHT22;7099;53.922;10.728;2023-12-28T03:52:48;8.20;99.90
14049;DHT22;7099;53.922;10.728;2023-12-28T03:56:54;8.30;99.90
14049;DHT22;7099;53.922;10.728;2023-12-28T04:01:00;8.30;99.90
14049;DHT22;7099;53.922;10.728;2023-12-28T04:05:06;8.30;99.90
14049;DHT22;7099;53.922;10.728;2023-12-28T04:09:12;8.30;99.90
14049;DHT22;7099;53.922;10.728;2023-12-28T04:13:18;8.30;99.90
14049;DHT22;7099;53.922;10.728;2023-12-28T04:17:23;8.30;99.90
14049;DHT22;7099;53.922;10.728;2023-12-28T04:21:29;8.30;99.90
14049;DHT22;7099;53.922;10.728;2023-12-28T04:25:35;8.20;99.90
14049;DHT22;7099;53.922;10.728;2023-12-28T04:29:40;8.20;99.90
14049;DHT22;7099;53.922;10.728;2023-12-28T04:33:46;8.20;99.90
14049;DHT22;7099;53.922;10.728;2023-12-28T04:37:52;8.20;99.90
14049;DHT22;7099;53.922;10.728;2023-12-28T04:41:58;8.20;99.90
14049;DHT22;7099;53.922;10.728;2023-12-28T04:46:04;8.20;99.90
14049;DHT22;7099;53.922;10.728;2023-12-28T04:50:10;8.20;99.90
14049;DHT22;7099;53.922;10.728;2023-12-28T04:54:15;8.20;99.90
14049;DHT22;7099;53.922;10.728;2023-12-28T04:58:21;8.20;99.90
14049;DHT22;7099;53.922;10.728;2023-12-28T05:02:26;8.20;99.90
14049;DHT22;7099;53.922;10.728;2023-12-28T05:06:32;8.20;99.90
14049;DHT22;7099;53.922;10.728;2023-12-28T05:10:37;8.20;99.90
14049;DHT22;7099;53.922;10.728;2023-12-28T05:14:43;8.20;99.90
14049;DHT22;7099;53.922;10.728;2023-12-28T05:18:48;8.20;99.90
14049;DHT22;7099;53.922;10.728;2023-12-28T05:22:54;8.10;99.90
14049;DHT22;7099;53.922;10.728;2023-12-28T05:27:00;8.10;99.90
14049;DHT22;7099;53.922;10.728;2023-12-28T05:31:05;8.10;99.90
14049;DHT22;7099;53.922;10.728;2023-12-28T05:35:11;8.10;99.90
14049;DHT22;7099;53.922;10.728;2023-12-28T05:39:17;8.10;99.90
14049;DHT22;7099;53.922;10.728;2023-12-28T05:43:22;8.10;99.90
14049;DHT22;7099;53.922;10.728;2023-12-28T05:47:28;8.10;99.90
14049;DHT22;7099;53.922;10.728;2023-12-28T05:51:40;8.00;99.90
14049;DHT22;7099;53.922;10.728;2023-12-28T05:55:46;8.10;99.90
14049;DHT22;7099;53.922;10.728;2023-12-28T05:59:52;8.10;99.90
14049;DHT22;7099;53.922;10.728;2023-12-28T06:03:57;8.10;99.90
14049;DHT22;7099;53.922;10.728;2023-12-28T06:08:03;8.10;99.90
14049;DHT22;7099;53.922;10.728;2023-12-28T06:12:09;8.10;99.90
14049;DHT22;7099;53.922;10.728;2023-12-28T06:16:15;8.00;99.90
14049;DHT22;7099;53.922;10.728;2023-12-28T06:20:21;8.10;99.90
14049;DHT22;7099;53.922;10.728;2023-12-28T06:24:26;8.10;99.90
14049;DHT22;7099;53.922;10.728;2023-12-28T06:28:32;8.10;99.90
14049;DHT22;7099;53.922;10.728;2023-12-28T06:32:38;8.10;99.90
14049;DHT22;7099;53.922;10.728;2023-12-28T06:36:44;8.10;99.90
14049;DHT22;7099;53.922;10.728;2023-12-28T06:40:51;8.10;99.90
14049;DHT22;7099;53.922;10.728;2023-12-28T06:44:57;8.20;99.90
14049;DHT22;7099;53.922;10.728;2023-12-28T06:49:02;8.20;99.90
14049;DHT22;7099;53.922;10.728;2023-12-28T06:53:11;8.20;99.90
14049;DHT22;7099;53.922;10.728;2023-12-28T06:57:16;8.20;99.90
14049;DHT22;7099;53.922;10.728;2023-12-28T07:01:22;8.20;99.90
14049;DHT22;7099;53.922;10.728;2023-12-28T07:05:28;8.20;99.90
14049;DHT22;7099;53.922;10.728;2023-12-28T07:09:34;8.20;99.90
14049;DHT22;7099;53.922;10.728;2023-12-28T07:13:39;8.20;99.90
14049;DHT22;7099;53.922;10.728;2023-12-28T07:17:45;8.20;99.90
14049;DHT22;7099;53.922;10.728;2023-12-28T07:21:50;8.20;99.90
14049;DHT22;7099;53.922;10.728;2023-12-28T07:25:57;8.20;99.90
14049;DHT22;7099;53.922;10.728;2023-12-28T07:30:03;8.20;99.90
14049;DHT22;7099;53.922;10.728;2023-12-28T07:34:09;8.30;99.90
14049;DHT22;7099;53.922;10.728;2023-12-28T07:38:15;8.30;99.90
14049;DHT22;7099;53.922;10.728;2023-12-28T07:42:21;8.40;99.90
14049;DHT22;7099;53.922;10.728;2023-12-28T07:46:26;8.40;99.90
14049;DHT22;7099;53.922;10.728;2023-12-28T07:50:32;8.40;99.90
14049;DHT22;7099;53.922;10.728;2023-12-28T07:54:38;8.50;99.90
14049;DHT22;7099;53.922;10.728;2023-12-28T07:58:43;8.60;99.90
14049;DHT22;7099;53.922;10.728;2023-12-28T08:02:49;8.60;99.90
14049;DHT22;7099;53.922;10.728;2023-12-28T08:06:54;8.70;99.90
14049;DHT22;7099;53.922;10.728;2023-12-28T08:11:00;8.70;99.90
14049;DHT22;7099;53.922;10.728;2023-12-28T08:15:06;8.70;99.90
14049;DHT22;7099;53.922;10.728;2023-12-28T08:19:12;8.80;99.90
14049;DHT22;7099;53.922;10.728;2023-12-28T08:23:18;8.80;99.90
14049;DHT22;7099;53.922;10.728;2023-12-28T08:27:25;8.90;99.90
14049;DHT22;7099;53.922;10.728;2023-12-28T08:31:30;8.90;99.90
14049;DHT22;7099;53.922;10.728;2023-12-28T08:35:36;8.90;99.90
14049;DHT22;7099;53.922;10.728;2023-12-28T08:39:42;9.10;99.90
14049;DHT22;7099;53.922;10.728;2023-12-28T08:43:47;9.20;99.90
14049;DHT22;7099;53.922;10.728;2023-12-28T08:47:53;9.20;99.90
14049;DHT22;7099;53.922;10.728;2023-12-28T08:51:59;9.30;99.90
14049;DHT22;7099;53.922;10.728;2023-12-28T08:56:21;9.30;99.90
14049;DHT22;7099;53.922;10.728;2023-12-28T09:00:27;9.40;99.90
14049;DHT22;7099;53.922;10.728;2023-12-28T09:04:33;9.40;99.90
14049;DHT22;7099;53.922;10.728;2023-12-28T09:08:41;9.50;99.90
14049;DHT22;7099;53.922;10.728;2023-12-28T09:12:48;9.60;99.90
14049;DHT22;7099;53.922;10.728;2023-12-28T09:16:54;9.60;99.90
14049;DHT22;7099;53.922;10.728;2023-12-28T09:20:59;9.70;99.90
14049;DHT22;7099;53.922;10.728;2023-12-28T09:25:05;9.80;99.90
14049;DHT22;7099;53.922;10.728;2023-12-28T09:29:11;9.80;99.90
14049;DHT22;7099;53.922;10.728;2023-12-28T09:33:16;9.90;99.90
14049;DHT22;7099;53.922;10.728;2023-12-28T09:37:22;9.90;99.90
14049;DHT22;7099;53.922;10.728;2023-12-28T09:41:30;10.00;99.90
14049;DHT22;7099;53.922;10.728;2023-12-28T09:45:36;10.10;99.90
14049;DHT22;7099;53.922;10.728;2023-12-28T09:49:43;10.10;99.90
14049;DHT22;7099;53.922;10.728;2023-12-28T09:53:49;10.20;99.90
14049;DHT22;7099;53.922;10.728;2023-12-28T09:57:56;10.30;99.90
14049;DHT22;7099;53.922;10.728;2023-12-28T10:02:03;10.30;99.90
14049;DHT22;7099;53.922;10.728;2023-12-28T10:06:09;10.40;99.90
14049;DHT22;7099;53.922;10.728;2023-12-28T10:10:15;10.40;99.90
14049;DHT22;7099;53.922;10.728;2023-12-28T10:14:21;10.40;99.90
14049;DHT22;7099;53.922;10.728;2023-12-28T10:18:27;10.50;99.90
14049;DHT22;7099;53.922;10.728;2023-12-28T10:22:33;10.60;99.90
14049;DHT22;7099;53.922;10.728;2023-12-28T10:26:39;10.60;99.90
14049;DHT22;7099;53.922;10.728;2023-12-28T10:30:44;10.60;99.90
14049;DHT22;7099;53.922;10.728;2023-12-28T10:34:52;10.70;99.90
14049;DHT22;7099;53.922;10.728;2023-12-28T10:39:00;10.80;99.90
14049;DHT22;7099;53.922;10.728;2023-12-28T10:43:08;10.80;99.90
14049;DHT22;7099;53.922;10.728;2023-12-28T10:47:18;10.90;99.90
14049;DHT22;7099;53.922;10.728;2023-12-28T10:51:25;11.00;99.90
14049;DHT22;7099;53.922;10.728;2023-12-28T10:55:53;11.10;99.90
14049;DHT22;7099;53.922;10.728;2023-12-28T11:00:20;11.10;99.90
14049;DHT22;7099;53.922;10.728;2023-12-28T15:11:28;10.00;99.90
14049;DHT22;7099;53.922;10.728;2023-12-28T15:15:51;10.60;99.90
14049;DHT22;7099;53.922;10.728;2023-12-28T15:19:57;10.60;99.90
14049;DHT22;7099;53.922;10.728;2023-12-28T15:24:03;10.60;99.90
14049;DHT22;7099;53.922;10.728;2023-12-28T15:28:09;10.60;99.90
14049;DHT22;7099;53.922;10.728;2023-12-28T15:32:15;10.60;99.90
14049;DHT22;7099;53.922;10.728;2023-12-28T15:36:21;10.60;99.90
14049;DHT22;7099;53.922;10.728;2023-12-28T15:40:27;10.70;99.90
14049;DHT22;7099;53.922;10.728;2023-12-28T15:44:33;10.70;99.90
14049;DHT22;7099;53.922;10.728;2023-12-28T15:48:39;10.70;99.90
14049;DHT22;7099;53.922;10.728;2023-12-28T15:52:45;10.70;99.90
14049;DHT22;7099;53.922;10.728;2023-12-28T15:56:50;10.70;99.90
14049;DHT22;7099;53.922;10.728;2023-12-28T16:00:56;10.70;99.90
14049;DHT22;7099;53.922;10.728;2023-12-28T16:05:02;10.70;99.90
14049;DHT22;7099;53.922;10.728;2023-12-28T16:09:08;10.70;99.90
14049;DHT22;7099;53.922;10.728;2023-12-28T16:13:14;10.70;99.90
14049;DHT22;7099;53.922;10.728;2023-12-28T16:17:19;10.70;99.90
14049;DHT22;7099;53.922;10.728;2023-12-28T16:21:25;10.80;99.90
14049;DHT22;7099;53.922;10.728;2023-12-28T16:25:32;10.80;99.90
14049;DHT22;7099;53.922;10.728;2023-12-28T16:29:38;10.80;99.90
14049;DHT22;7099;53.922;10.728;2023-12-28T16:33:44;10.80;99.90
14049;DHT22;7099;53.922;10.728;2023-12-28T16:37:49;10.70;99.90
14049;DHT22;7099;53.922;10.728;2023-12-28T16:41:55;10.70;99.90
14049;DHT22;7099;53.922;10.728;2023-12-28T16:46:01;10.70;99.90
14049;DHT22;7099;53.922;10.728;2023-12-28T16:50:07;10.80;99.90
14049;DHT22;7099;53.922;10.728;2023-12-28T16:54:13;10.70;99.90
14049;DHT22;7099;53.922;10.728;2023-12-28T16:58:20;10.80;99.90
14049;DHT22;7099;53.922;10.728;2023-12-28T17:02:25;10.80;99.90
14049;DHT22;7099;53.922;10.728;2023-12-28T17:06:31;10.80;99.90
14049;DHT22;7099;53.922;10.728;2023-12-28T17:10:37;10.80;99.90
14049;DHT22;7099;53.922;10.728;2023-12-28T17:14:46;10.80;99.90
14049;DHT22;7099;53.922;10.728;2023-12-28T17:18:52;10.70;99.90
14049;DHT22;7099;53.922;10.728;2023-12-28T17:23:25;10.80;99.90
14049;DHT22;7099;53.922;10.728;2023-12-28T17:27:49;10.80;99.90
14049;DHT22;7099;53.922;10.728;2023-12-28T17:32:01;10.70;99.90
14049;DHT22;7099;53.922;10.728;2023-12-28T17:36:08;10.80;99.90
14049;DHT22;7099;53.922;10.728;2023-12-28T17:40:16;10.80;99.90
14049;DHT22;7099;53.922;10.728;2023-12-28T17:44:24;10.80;99.90
14049;DHT22;7099;53.922;10.728;2023-12-28T17:48:33;10.80;99.90
14049;DHT22;7099;53.922;10.728;2023-12-28T17:52:43;10.80;99.90
14049;DHT22;7099;53.922;10.728;2023-12-28T17:56:52;10.70;99.90
14049;DHT22;7099;53.922;10.728;2023-12-28T18:01:01;10.70;99.90
14049;DHT22;7099;53.922;10.728;2023-12-28T18:05:07;10.60;99.90
14049;DHT22;7099;53.922;10.728;2023-12-28T18:09:13;10.60;99.90
14049;DHT22;7099;53.922;10.728;2023-12-28T18:13:19;10.60;99.90
14049;DHT22;7099;53.922;10.728;2023-12-28T18:17:24;10.50;99.90
14049;DHT22;7099;53.922;10.728;2023-12-28T18:21:31;10.50;99.90
14049;DHT22;7099;53.922;10.728;2023-12-28T18:25:36;10.50;99.90
14049;DHT22;7099;53.922;10.728;2023-12-28T18:29:42;10.50;99.90
14049;DHT22;7099;53.922;10.728;2023-12-28T18:33:53;10.50;99.90
14049;DHT22;7099;53.922;10.728;2023-12-28T18:37:59;10.40;99.90
14049;DHT22;7099;53.922;10.728;2023-12-28T18:42:06;10.40;99.90
14049;DHT22;7099;53.922;10.728;2023-12-28T18:46:12;10.40;99.90
14049;DHT22;7099;53.922;10.728;2023-12-28T18:50:19;10.30;99.90
14049;DHT22;7099;53.922;10.728;2023-12-28T18:54:25;10.30;99.90
14049;DHT22;7099;53.922;10.728;2023-12-28T18:58:30;10.30;99.90
14049;DHT22;7099;53.922;10.728;2023-12-28T19:02:36;10.30;99.90
14049;DHT22;7099;53.922;10.728;2023-12-28T19:06:42;10.20;99.90
14049;DHT22;7099;53.922;10.728;2023-12-28T19:10:48;10.20;99.90
14049;DHT22;7099;53.922;10.728;2023-12-28T19:14:53;10.20;99.90
14049;DHT22;7099;53.922;10.728;2023-12-28T19:19:00;10.20;99.90
14049;DHT22;7099;53.922;10.728;2023-12-28T19:23:06;10.20;99.90
14049;DHT22;7099;53.922;10.728;2023-12-28T19:27:12;10.20;99.90
14049;DHT22;7099;53.922;10.728;2023-12-28T19:31:18;10.20;99.90
14049;DHT22;7099;53.922;10.728;2023-12-28T19:35:24;10.30;99.90
14049;DHT22;7099;53.922;10.728;2023-12-28T19:39:29;10.30;99.90
14049;DHT22;7099;53.922;10.728;2023-12-28T19:43:35;10.30;99.90
14049;DHT22;7099;53.922;10.728;2023-12-28T19:47:40;10.30;99.90
14049;DHT22;7099;53.922;10.728;2023-12-28T19:51:46;10.30;99.90
14049;DHT22;7099;53.922;10.728;2023-12-28T19:55:52;10.30;99.90
14049;DHT22;7099;53.922;10.728;2023-12-28T19:59:58;10.30;99.90
14049;DHT22;7099;53.922;10.728;2023-12-28T20:04:03;10.30;99.90
14049;DHT22;7099;53.922;10.728;2023-12-28T20:08:09;10.30;99.90
14049;DHT22;7099;53.922;10.728;2023-12-28T20:12:14;10.30;99.90
14049;DHT22;7099;53.922;10.728;2023-12-28T20:16:20;10.40;99.90
14049;DHT22;7099;53.922;10.728;2023-12-28T20:20:25;10.40;99.90
14049;DHT22;7099;53.922;10.728;2023-12-28T20:24:31;10.40;99.90
14049;DHT22;7099;53.922;10.728;2023-12-28T20:28:39;10.40;99.90
14049;DHT22;7099;53.922;10.728;2023-12-28T20:32:44;10.40;99.90
14049;DHT22;7099;53.922;10.728;2023-12-28T20:36:50;10.40;99.90
14049;DHT22;7099;53.922;10.728;2023-12-28T20:40:57;10.40;99.90
14049;DHT22;7099;53.922;10.728;2023-12-28T20:45:03;10.30;99.90
14049;DHT22;7099;53.922;10.728;2023-12-28T20:49:09;10.30;99.90
14049;DHT22;7099;53.922;10.728;2023-12-28T20:53:15;10.40;99.90
14049;DHT22;7099;53.922;10.728;2023-12-28T20:57:21;10.40;99.90
14049;DHT22;7099;53.922;10.728;2023-12-28T21:01:34;10.40;99.90
14049;DHT22;7099;53.922;10.728;2023-12-28T21:05:40;10.40;99.90
14049;DHT22;7099;53.922;10.728;2023-12-28T21:09:46;10.40;99.90
14049;DHT22;7099;53.922;10.728;2023-12-28T21:13:51;10.40;99.90
14049;DHT22;7099;53.922;10.728;2023-12-28T21:18:07;10.40;99.90
14049;DHT22;7099;53.922;10.728;2023-12-28T21:22:26;10.40;99.90
14049;DHT22;7099;53.922;10.728;2023-12-28T21:26:32;10.40;99.90
14049;DHT22;7099;53.922;10.728;2023-12-28T21:30:38;10.50;99.90
14049;DHT22;7099;53.922;10.728;2023-12-28T21:34:46;10.50;99.90
14049;DHT22;7099;53.922;10.728;2023-12-28T21:38:52;10.50;99.90
14049;DHT22;7099;53.922;10.728;2023-12-28T21:42:57;10.50;99.90
14049;DHT22;7099;53.922;10.728;2023-12-28T21:47:03;10.50;99.90
14049;DHT22;7099;53.922;10.728;2023-12-28T21:51:09;10.50;99.90
14049;DHT22;7099;53.922;10.728;2023-12-28T21:55:16;10.50;99.90
14049;DHT22;7099;53.922;10.728;2023-12-28T21:59:21;10.60;99.90
14049;DHT22;7099;53.922;10.728;2023-12-28T22:03:28;10.50;99.90
14049;DHT22;7099;53.922;10.728;2023-12-28T22:07:34;10.50;99.90
14049;DHT22;7099;53.922;10.728;2023-12-28T22:11:40;10.50;99.90
14049;DHT22;7099;53.922;10.728;2023-12-28T22:15:54;10.60;99.90
14049;DHT22;7099;53.922;10.728;2023-12-28T22:20:04;10.60;99.90
14049;DHT22;7099;53.922;10.728;2023-12-28T22:24:10;10.60;99.90
14049;DHT22;7099;53.922;10.728;2023-12-28T22:28:16;10.60;99.90
14049;DHT22;7099;53.922;10.728;2023-12-28T22:32:21;10.60;99.90
14049;DHT22;7099;53.922;10.728;2023-12-28T22:36:27;10.60;99.90
14049;DHT22;7099;53.922;10.728;2023-12-28T22:40:33;10.60;99.90
14049;DHT22;7099;53.922;10.728;2023-12-28T22:44:38;10.60;99.90
14049;DHT22;7099;53.922;10.728;2023-12-28T22:48:44;10.70;99.90
14049;DHT22;7099;53.922;10.728;2023-12-28T22:52:50;10.60;99.90
14049;DHT22;7099;53.922;10.728;2023-12-28T22:56:56;10.60;99.90
14049;DHT22;7099;53.922;10.728;2023-12-28T23:01:02;10.60;99.90
14049;DHT22;7099;53.922;10.728;2023-12-28T23:05:08;10.60;99.90
14049;DHT22;7099;53.922;10.728;2023-12-28T23:09:14;10.60;99.90
14049;DHT22;7099;53.922;10.728;2023-12-28T23:13:20;10.60;99.90
14049;DHT22;7099;53.922;10.728;2023-12-28T23:17:26;10.60;99.90
14049;DHT22;7099;53.922;10.728;2023-12-28T23:21:32;10.70;99.90
14049;DHT22;7099;53.922;10.728;2023-12-28T23:25:37;10.60;99.90
14049;DHT22;7099;53.922;10.728;2023-12-28T23:29:43;10.60;99.90
14049;DHT22;7099;53.922;10.728;2023-12-28T23:33:49;10.60;99.90
14049;DHT22;7099;53.922;10.728;2023-12-28T23:37:56;10.60;99.90
14049;DHT22;7099;53.922;10.728;2023-12-28T23:42:01;10.60;99.90
14049;DHT22;7099;53.922;10.728;2023-12-28T23:46:08;10.50;99.90
14049;DHT22;7099;53.922;10.728;2023-12-28T23:50:14;10.50;99.90
14049;DHT22;7099;53.922;10.728;2023-12-28T23:54:20;10.60;99.90
14049;DHT22;7099;53.922;10.728;2023-12-28T23:58:26;10.50;99.90
